Time;durP1;ratioP1;P1;durP2;ratioP2;P2;SDS_P1;SDS_P2;PMS_P1;PMS_P2;Temp;Humidity;BMP_temperature;BMP_pressure;BME280_temperature;BME280_humidity;BME280_pressure;Samples;Min_cycle;Max_cycle;Signal;HPM_P1;HPM_P2
2022/09/30 00:02:11;;;;;;;4.47;2.70;;;13.90;95.10;;;;;;10189274;29;20485;-62
2022/09/30 00:07:12;;;;;;;3.33;2.40;;;13.90;95.10;;;;;;10194943;29;20031;-62
2022/09/30 00:12:12;;;;;;;3.47;2.67;;;13.90;95.10;;;;;;10199617;29;20565;-62
2022/09/30 00:17:13;;;;;;;3.40;2.28;;;13.90;95.10;;;;;;10198669;29;20377;-62
2022/09/30 00:22:14;;;;;;;4.45;2.38;;;13.90;95.10;;;;;;10197568;29;20449;-62
2022/09/30 00:27:17;;;;;;;3.55;2.38;;;13.80;95.10;;;;;;10201106;29;20827;-69
2022/09/30 00:32:17;;;;;;;3.88;2.20;;;13.80;95.10;;;;;;10201367;29;20031;-61
2022/09/30 00:37:18;;;;;;;4.32;2.50;;;13.80;95.10;;;;;;10197938;29;20036;-62
2022/09/30 00:42:19;;;;;;;3.40;1.95;;;13.80;95.10;;;;;;10196966;29;20028;-61
2022/09/30 00:47:31;;;;;;;3.20;2.22;;;13.80;95.10;;;;;;10195731;29;20353;-61
2022/09/30 00:52:33;;;;;;;3.15;2.03;;;13.80;95.10;;;;;;10199171;29;20031;-61
2022/09/30 00:57:35;;;;;;;3.35;2.30;;;13.70;95.10;;;;;;10198500;29;20468;-62
2022/09/30 01:02:36;;;;;;;3.28;2.40;;;13.70;95.10;;;;;;10201381;23;20059;-62
2022/09/30 01:07:37;;;;;;;2.95;2.03;;;13.70;95.10;;;;;;10196676;29;20031;-62
2022/09/30 01:12:38;;;;;;;2.40;1.73;;;13.70;95.10;;;;;;10194823;29;20031;-62
2022/09/30 01:17:50;;;;;;;3.58;1.90;;;13.70;95.10;;;;;;10196390;29;20063;-61
2022/09/30 01:23:03;;;;;;;2.50;2.05;;;13.60;95.00;;;;;;10197279;29;20026;-63
2022/09/30 01:28:18;;;;;;;2.60;1.63;;;13.60;95.00;;;;;;10178230;29;20043;-63
2022/09/30 01:33:49;;;;;;;2.35;1.80;;;13.60;95.00;;;;;;10197350;29;20026;-62
2022/09/30 01:39:06;;;;;;;3.03;1.65;;;13.60;94.90;;;;;;10193765;29;20035;-62
2022/09/30 01:44:22;;;;;;;2.72;1.65;;;13.50;94.90;;;;;;10196188;29;20403;-61
2022/09/30 01:49:26;;;;;;;2.42;1.85;;;13.50;94.90;;;;;;10197270;29;20042;-61
2022/09/30 01:54:32;;;;;;;2.08;1.50;;;13.50;94.90;;;;;;10197347;29;20023;-61
2022/09/30 01:59:38;;;;;;;2.30;1.50;;;13.40;94.80;;;;;;10198523;29;20036;-61
2022/09/30 02:04:45;;;;;;;1.52;1.40;;;13.50;94.80;;;;;;10182356;29;20044;-62
2022/09/30 02:10:10;;;;;;;2.30;1.60;;;13.40;94.80;;;;;;10197429;29;20035;-61
2022/09/30 02:15:16;;;;;;;1.92;1.38;;;13.40;94.70;;;;;;10196053;29;20118;-62
2022/09/30 02:20:26;;;;;;;2.05;1.70;;;13.40;94.70;;;;;;10194447;29;20357;-61
2022/09/30 02:25:36;;;;;;;2.22;1.50;;;13.30;94.70;;;;;;10227340;28;20023;-62
2022/09/30 02:30:41;;;;;;;2.03;1.55;;;13.30;94.60;;;;;;10236406;28;20024;-62
2022/09/30 02:35:50;;;;;;;1.98;1.52;;;13.30;94.60;;;;;;10235063;28;20050;-61
2022/09/30 02:41:05;;;;;;;3.78;1.85;;;13.30;94.60;;;;;;10235398;28;20413;-62
2022/09/30 02:46:11;;;;;;;1.92;1.65;;;13.30;94.60;;;;;;10235538;28;20031;-62
2022/09/30 02:51:24;;;;;;;1.75;1.45;;;13.20;94.50;;;;;;10233211;28;20039;-62
2022/09/30 02:56:44;;;;;;;2.17;1.60;;;13.20;94.50;;;;;;10235158;28;20485;-62
2022/09/30 03:01:45;;;;;;;2.08;1.70;;;13.20;94.40;;;;;;10231623;28;20020;-62
2022/09/30 03:06:46;;;;;;;2.53;1.65;;;13.20;94.40;;;;;;10228047;28;20055;-61
2022/09/30 03:11:48;;;;;;;1.60;1.40;;;13.20;94.40;;;;;;10237164;28;20035;-62
2022/09/30 03:16:58;;;;;;;3.88;1.90;;;13.10;94.40;;;;;;10217819;28;20381;-62
2022/09/30 03:22:18;;;;;;;3.28;2.05;;;13.10;94.40;;;;;;10234051;28;20469;-61
2022/09/30 03:27:29;;;;;;;2.67;1.70;;;13.10;94.30;;;;;;10231124;28;20118;-62
2022/09/30 03:32:56;;;;;;;2.33;1.80;;;13.10;94.30;;;;;;10231249;28;20035;-61
2022/09/30 03:38:03;;;;;;;3.00;2.10;;;13.00;94.20;;;;;;10230825;28;20408;-61
2022/09/30 03:43:30;;;;;;;2.95;1.92;;;13.00;94.20;;;;;;10232436;28;20414;-62
2022/09/30 03:48:32;;;;;;;2.40;1.65;;;13.00;94.20;;;;;;10230445;28;20388;-62
2022/09/30 03:53:40;;;;;;;2.45;1.85;;;13.00;94.20;;;;;;10233627;28;20031;-62
2022/09/30 03:58:43;;;;;;;4.18;2.13;;;13.00;94.10;;;;;;10232097;28;20051;-61
2022/09/30 04:03:43;;;;;;;3.90;2.10;;;12.90;94.10;;;;;;10228817;28;20508;-62
2022/09/30 04:08:44;;;;;;;2.17;1.90;;;12.90;94.10;;;;;;10230917;28;20035;-62
2022/09/30 04:13:45;;;;;;;3.53;2.30;;;12.90;94.10;;;;;;10233756;28;20800;-70
2022/09/30 04:18:46;;;;;;;2.97;2.10;;;12.90;94.10;;;;;;10230744;28;20067;-69
2022/09/30 04:23:46;;;;;;;2.80;2.10;;;12.90;94.00;;;;;;10226588;28;20118;-61
2022/09/30 04:28:47;;;;;;;2.30;1.90;;;12.80;94.00;;;;;;10214634;28;20035;-63
2022/09/30 04:33:49;;;;;;;4.97;2.45;;;12.80;93.90;;;;;;10231691;28;20027;-62
2022/09/30 04:38:51;;;;;;;2.42;2.03;;;12.80;93.90;;;;;;10231795;28;20047;-62
2022/09/30 04:43:52;;;;;;;2.47;1.98;;;12.80;93.90;;;;;;10235448;28;20036;-62
2022/09/30 04:48:53;;;;;;;2.67;1.80;;;12.80;93.90;;;;;;10231972;28;20023;-64
2022/09/30 04:53:54;;;;;;;5.32;2.17;;;12.70;93.80;;;;;;10232211;28;20035;-62
2022/09/30 04:58:54;;;;;;;3.15;2.20;;;12.70;93.80;;;;;;10236369;28;20055;-62
2022/09/30 05:03:55;;;;;;;3.88;2.17;;;12.70;93.80;;;;;;10235519;28;20058;-62
2022/09/30 05:08:56;;;;;;;2.72;1.83;;;12.70;94.00;;;;;;10242608;28;20046;-62
2022/09/30 05:13:57;;;;;;;2.80;1.90;;;12.70;93.70;;;;;;10238609;28;20484;-62
2022/09/30 05:18:57;;;;;;;3.00;1.90;;;12.60;93.70;;;;;;10236042;28;20059;-62
2022/09/30 05:23:58;;;;;;;3.22;1.67;;;12.60;93.60;;;;;;10238248;28;20095;-63
2022/09/30 05:28:59;;;;;;;2.00;1.80;;;12.60;93.60;;;;;;10237079;28;20340;-61
2022/09/30 05:34:00;;;;;;;2.38;1.90;;;12.60;93.60;;;;;;10230674;28;20023;-63
2022/09/30 05:39:01;;;;;;;3.13;1.90;;;12.60;93.60;;;;;;10231944;28;20070;-61
2022/09/30 05:44:01;;;;;;;3.22;1.95;;;12.50;93.50;;;;;;10240672;28;20034;-63
2022/09/30 05:49:02;;;;;;;2.72;1.63;;;12.50;93.50;;;;;;10235781;28;20082;-62
2022/09/30 05:54:03;;;;;;;2.30;1.65;;;12.50;93.50;;;;;;10218647;28;20424;-62
2022/09/30 05:59:05;;;;;;;2.53;2.00;;;12.50;93.50;;;;;;10191550;28;20788;-63
2022/09/30 06:04:05;;;;;;;2.78;1.80;;;12.50;93.50;;;;;;10156377;28;20063;-65
2022/09/30 06:09:06;;;;;;;2.33;1.73;;;12.50;93.40;;;;;;10154198;28;20948;-62
2022/09/30 06:14:09;;;;;;;3.00;2.05;;;12.40;93.40;;;;;;10157763;28;20293;-62
2022/09/30 06:19:10;;;;;;;4.75;2.15;;;12.40;93.40;;;;;;10159405;28;20035;-63
2022/09/30 06:24:13;;;;;;;2.67;1.90;;;12.40;93.40;;;;;;10159249;28;20034;-62
2022/09/30 06:29:14;;;;;;;2.42;1.92;;;12.40;93.30;;;;;;10163992;23;20051;-62
2022/09/30 06:34:15;;;;;;;2.42;1.83;;;12.40;93.30;;;;;;10122391;29;20572;-63
2022/09/30 06:39:15;;;;;;;2.88;2.10;;;12.40;93.30;;;;;;10117736;29;20103;-61
2022/09/30 06:44:16;;;;;;;2.40;1.83;;;12.40;93.30;;;;;;10122574;29;20055;-61
2022/09/30 06:49:17;;;;;;;3.58;2.00;;;12.40;93.30;;;;;;10124892;29;20158;-61
2022/09/30 06:54:21;;;;;;;3.03;2.38;;;12.40;93.20;;;;;;10082354;29;20083;-71
2022/09/30 06:59:25;;;;;;;3.45;2.13;;;12.40;93.20;;;;;;10112573;29;20130;-62
2022/09/30 07:04:26;;;;;;;4.00;1.83;;;12.40;93.20;;;;;;10117989;29;20448;-62
2022/09/30 07:09:29;;;;;;;2.50;2.20;;;12.40;93.20;;;;;;10127076;29;20038;-62
2022/09/30 07:14:30;;;;;;;3.13;2.05;;;12.40;93.20;;;;;;10122192;29;20038;-62
2022/09/30 07:19:40;;;;;;;3.25;1.92;;;12.40;93.10;;;;;;10119677;29;20059;-62
2022/09/30 07:24:41;;;;;;;2.95;1.88;;;12.50;93.10;;;;;;10178941;23;20308;-63
2022/09/30 07:29:42;;;;;;;2.67;1.98;;;12.50;93.10;;;;;;10240026;28;20034;-62
2022/09/30 07:34:44;;;;;;;3.53;2.42;;;12.50;93.10;;;;;;10241068;28;20703;-62
2022/09/30 07:39:47;;;;;;;2.97;1.80;;;12.60;93.10;;;;;;10239631;28;20042;-62
2022/09/30 07:44:50;;;;;;;5.07;1.90;;;12.80;93.00;;;;;;10240630;28;20822;-62
2022/09/30 07:49:51;;;;;;;2.35;1.90;;;12.90;92.90;;;;;;10243538;28;20539;-62
2022/09/30 07:54:52;;;;;;;3.92;1.83;;;13.10;92.80;;;;;;10242483;28;20573;-62
2022/09/30 07:59:53;;;;;;;2.70;1.92;;;13.20;92.70;;;;;;10244851;28;20062;-62
2022/09/30 08:04:53;;;;;;;2.22;1.75;;;13.20;92.70;;;;;;10221630;28;20934;-62
2022/09/30 08:09:57;;;;;;;3.35;2.05;;;13.30;92.70;;;;;;10244333;28;20115;-62
2022/09/30 08:14:57;;;;;;;3.03;2.15;;;13.30;92.70;;;;;;10240596;28;20082;-62
2022/09/30 08:19:58;;;;;;;2.50;1.83;;;13.40;92.70;;;;;;10236391;28;20928;-62
2022/09/30 08:25:00;;;;;;;2.60;1.67;;;13.40;92.70;;;;;;10243203;28;20057;-62
2022/09/30 08:30:01;;;;;;;5.32;2.38;;;13.40;92.70;;;;;;10245727;28;20022;-62
2022/09/30 08:35:02;;;;;;;3.25;2.20;;;13.50;92.70;;;;;;10225780;28;20034;-62
2022/09/30 08:40:03;;;;;;;3.22;2.00;;;13.50;92.70;;;;;;10244249;28;20475;-62
2022/09/30 08:45:18;;;;;;;3.67;1.75;;;13.50;92.80;;;;;;10248896;28;20081;-63
2022/09/30 08:50:29;;;;;;;3.78;2.03;;;13.50;92.80;;;;;;10229036;28;20566;-62
2022/09/30 08:55:42;;;;;;;3.55;2.00;;;13.50;92.80;;;;;;10244129;28;20031;-62
2022/09/30 09:00:43;;;;;;;2.85;2.13;;;13.60;92.80;;;;;;10230076;28;20038;-62
2022/09/30 09:06:04;;;;;;;3.60;2.08;;;13.60;92.80;;;;;;10243767;28;20029;-70
2022/09/30 09:11:08;;;;;;;3.85;2.00;;;13.60;92.90;;;;;;10246023;28;21247;-62
2022/09/30 09:16:20;;;;;;;3.90;2.10;;;13.70;92.90;;;;;;10248095;28;20046;-62
2022/09/30 09:21:36;;;;;;;3.33;2.20;;;13.70;92.80;;;;;;10248395;28;20961;-62
2022/09/30 09:26:37;;;;;;;3.17;1.80;;;13.80;92.90;;;;;;10224664;28;20585;-61
2022/09/30 09:31:38;;;;;;;4.80;1.98;;;13.80;92.80;;;;;;10251150;28;20349;-61
2022/09/30 09:36:57;;;;;;;2.40;1.83;;;13.90;92.80;;;;;;10246517;28;20145;-62
2022/09/30 09:42:22;;;;;;;3.25;2.00;;;14.00;92.80;;;;;;10245122;28;20236;-62
2022/09/30 09:47:23;;;;;;;2.85;1.70;;;14.00;92.80;;;;;;10237194;28;20034;-61
2022/09/30 09:52:42;;;;;;;3.53;1.83;;;14.10;92.70;;;;;;10238814;28;20287;-62
2022/09/30 09:57:43;;;;;;;2.50;1.58;;;14.20;92.80;;;;;;10236835;28;20046;-62
2022/09/30 10:02:53;;;;;;;3.17;1.80;;;14.20;92.60;;;;;;10237418;28;20836;-65
2022/09/30 10:08:17;;;;;;;2.35;1.60;;;14.30;92.60;;;;;;10248202;28;20293;-66
2022/09/30 10:13:22;;;;;;;2.63;1.65;;;14.40;92.70;;;;;;10237657;28;20832;-62
2022/09/30 10:18:32;;;;;;;2.08;1.45;;;14.40;92.60;;;;;;10249820;28;20876;-64
2022/09/30 10:23:41;;;;;;;2.30;1.60;;;14.50;92.60;;;;;;10255962;28;20325;-70
2022/09/30 10:28:52;;;;;;;2.05;1.38;;;14.50;92.60;;;;;;10256062;28;20057;-62
2022/09/30 10:34:13;;;;;;;2.00;1.30;;;14.10;92.40;;;;;;10244324;28;20455;-62
2022/09/30 10:39:36;;;;;;;1.33;1.10;;;14.70;92.60;;;;;;10246170;28;20918;-62
2022/09/30 10:44:57;;;;;;;1.70;1.23;;;14.70;92.60;;;;;;10244566;28;20109;-62
2022/09/30 10:50:03;;;;;;;2.42;1.20;;;14.70;92.60;;;;;;10242038;28;20034;-67
2022/09/30 10:55:07;;;;;;;1.83;1.38;;;14.80;92.50;;;;;;10252727;28;20438;-66
2022/09/30 11:00:20;;;;;;;3.47;1.48;;;14.80;92.50;;;;;;10250073;28;20034;-63
2022/09/30 11:05:23;;;;;;;3.17;1.15;;;14.80;92.60;;;;;;10252193;28;20083;-66
2022/09/30 11:10:55;;;;;;;1.73;1.27;;;14.80;92.60;;;;;;10256814;28;20040;-62
2022/09/30 11:16:08;;;;;;;2.05;1.45;;;14.80;92.70;;;;;;10246664;28;20080;-72
2022/09/30 11:21:20;;;;;;;2.17;1.33;;;14.80;92.70;;;;;;10248585;28;20394;-71
2022/09/30 11:27:08;;;;;;;2.65;1.35;;;14.80;92.70;;;;;;10251543;28;20103;-70
2022/09/30 11:32:23;;;;;;;;;;;14.80;92.70;;;;;;10238243;28;20050;-64
2022/09/30 11:37:46;;;;;;;2.80;1.88;;;14.90;92.80;;;;;;10248064;28;20430;-62
2022/09/30 11:42:58;;;;;;;3.22;1.63;;;15.10;92.70;;;;;;10245529;28;20794;-62
2022/09/30 11:48:16;;;;;;;3.92;2.33;;;15.00;92.60;;;;;;10260856;28;20522;-62
2022/09/30 11:53:39;;;;;;;4.65;2.60;;;15.10;92.60;;;;;;10241104;28;20557;-62
2022/09/30 11:58:46;;;;;;;3.88;2.20;;;15.20;92.50;;;;;;10253437;28;20577;-62
2022/09/30 12:03:58;;;;;;;3.25;1.80;;;15.20;92.50;;;;;;10247970;28;20034;-62
2022/09/30 12:09:08;;;;;;;3.10;1.80;;;15.30;92.40;;;;;;10263256;28;20046;-62
2022/09/30 12:14:30;;;;;;;2.90;1.33;;;15.40;92.40;;;;;;10252333;28;20026;-62
2022/09/30 12:19:42;;;;;;;3.58;2.22;;;15.40;92.30;;;;;;10258123;28;20052;-61
2022/09/30 12:24:46;;;;;;;2.13;1.70;;;15.40;92.30;;;;;;10256982;28;20054;-71
2022/09/30 12:30:19;;;;;;;2.10;1.60;;;15.40;92.30;;;;;;10256107;28;20037;-62
2022/09/30 12:35:47;;;;;;;3.53;1.50;;;15.40;92.40;;;;;;10250886;28;20137;-62
2022/09/30 12:41:33;;;;;;;1.67;1.17;;;15.40;92.40;;;;;;10249101;28;20592;-62
2022/09/30 12:47:22;;;;;;;1.98;1.45;;;15.40;92.40;;;;;;10258806;28;20041;-63
2022/09/30 12:52:23;;;;;;;3.00;1.50;;;15.50;92.40;;;;;;10156180;28;20054;-62
2022/09/30 12:57:29;;;;;;;2.70;1.65;;;15.50;92.40;;;;;;10252759;28;20034;-62
2022/09/30 13:02:32;;;;;;;2.15;1.50;;;15.50;92.50;;;;;;10245032;28;20026;-62
2022/09/30 13:07:33;;;;;;;4.05;1.38;;;15.50;92.50;;;;;;10250699;28;20034;-61
2022/09/30 13:12:43;;;;;;;1.45;1.27;;;15.50;92.40;;;;;;10250320;28;20030;-65
2022/09/30 13:17:44;;;;;;;1.80;1.10;;;15.60;92.40;;;;;;10250885;28;20049;-62
2022/09/30 13:22:53;;;;;;;2.00;1.20;;;15.80;92.50;;;;;;10233269;28;20042;-62
2022/09/30 13:28:13;;;;;;;2.17;1.27;;;15.60;92.40;;;;;;10256607;28;20849;-62
2022/09/30 13:33:40;;;;;;;1.55;1.25;;;15.50;92.30;;;;;;10246499;28;20872;-62
2022/09/30 13:38:44;;;;;;;1.70;1.25;;;15.70;92.30;;;;;;10257234;28;20144;-68
2022/09/30 13:44:05;;;;;;;1.80;1.30;;;15.80;92.30;;;;;;10241063;28;20526;-62
2022/09/30 13:49:23;;;;;;;2.35;1.40;;;15.90;92.20;;;;;;10236524;28;20041;-61
2022/09/30 13:54:44;;;;;;;1.50;1.20;;;15.90;92.20;;;;;;10240477;28;20307;-62
2022/09/30 13:59:59;;;;;;;4.18;1.77;;;16.00;92.20;;;;;;10246263;28;20049;-62
2022/09/30 14:05:43;;;;;;;2.28;1.10;;;16.00;92.30;;;;;;10241520;28;20022;-64
2022/09/30 14:10:57;;;;;;;1.23;1.00;;;16.00;92.20;;;;;;10134624;28;20869;-62
2022/09/30 14:16:39;;;;;;;2.17;1.00;;;16.00;92.20;;;;;;10235739;28;20266;-63
2022/09/30 14:21:49;;;;;;;1.00;0.82;;;16.10;92.20;;;;;;10193244;28;20610;-62
2022/09/30 14:26:51;;;;;;;1.52;1.00;;;16.10;92.20;;;;;;10237691;28;20705;-62
2022/09/30 14:31:54;;;;;;;1.38;0.90;;;16.10;92.20;;;;;;10213749;28;20038;-63
2022/09/30 14:36:55;;;;;;;1.45;1.20;;;16.10;92.20;;;;;;10232350;28;20157;-62
2022/09/30 14:42:00;;;;;;;1.60;1.50;;;16.20;92.30;;;;;;10238510;28;20026;-62
2022/09/30 14:47:03;;;;;;;1.45;1.35;;;16.20;92.30;;;;;;10237824;28;20030;-64
2022/09/30 14:52:04;;;;;;;1.45;1.35;;;16.30;92.30;;;;;;10230824;28;20019;-62
2022/09/30 14:57:15;;;;;;;1.90;1.50;;;16.50;92.20;;;;;;10238698;28;20605;-61
2022/09/30 15:02:20;;;;;;;1.25;1.15;;;16.50;92.20;;;;;;10245970;28;20468;-62
2022/09/30 15:07:20;;;;;;;1.30;1.10;;;16.50;92.30;;;;;;10255741;28;20044;-68
2022/09/30 15:12:24;;;;;;;1.30;1.20;;;16.40;92.30;;;;;;10245934;28;20029;-63
2022/09/30 15:17:34;;;;;;;2.78;1.65;;;16.10;92.30;;;;;;10253036;28;20821;-68
2022/09/30 15:22:35;;;;;;;1.60;1.50;;;16.20;92.40;;;;;;10242869;28;20054;-61
2022/09/30 15:27:35;;;;;;;2.15;1.73;;;16.20;92.50;;;;;;10251583;28;20625;-63
2022/09/30 15:32:36;;;;;;;1.55;1.05;;;16.20;92.50;;;;;;10232465;28;20112;-63
2022/09/30 15:37:37;;;;;;;1.42;1.30;;;16.10;92.50;;;;;;10251895;28;20145;-62
2022/09/30 15:42:44;;;;;;;1.50;1.35;;;16.10;92.50;;;;;;10244657;28;20045;-62
2022/09/30 15:47:58;;;;;;;1.95;1.50;;;16.10;92.50;;;;;;10255234;28;20446;-62
2022/09/30 15:53:18;;;;;;;1.25;1.15;;;16.10;92.60;;;;;;10261185;23;20050;-62
2022/09/30 15:58:38;;;;;;;1.15;1.05;;;16.10;92.60;;;;;;10164784;28;20050;-64
2022/09/30 16:03:53;;;;;;;1.17;1.08;;;16.10;92.70;;;;;;10168418;28;20027;-62
2022/09/30 16:09:00;;;;;;;1.98;1.20;;;16.10;92.70;;;;;;10170913;28;20128;-68
2022/09/30 16:14:04;;;;;;;1.38;1.15;;;16.10;92.70;;;;;;10176353;28;20285;-72
2022/09/30 16:19:14;;;;;;;1.25;1.10;;;16.10;92.70;;;;;;10167667;28;20189;-61
2022/09/30 16:24:21;;;;;;;1.30;1.10;;;16.00;92.70;;;;;;10170564;28;20291;-62
2022/09/30 16:29:26;;;;;;;2.58;1.50;;;16.00;93.00;;;;;;10166109;28;20046;-66
2022/09/30 16:34:28;;;;;;;1.35;1.25;;;16.00;92.80;;;;;;10153852;28;20154;-62
2022/09/30 16:39:29;;;;;;;1.70;1.30;;;15.90;92.80;;;;;;10174206;28;20046;-62
2022/09/30 16:44:34;;;;;;;1.20;1.10;;;15.90;92.80;;;;;;10170269;28;20936;-62
2022/09/30 16:49:35;;;;;;;3.22;1.73;;;15.80;92.90;;;;;;10180513;28;20343;-63
2022/09/30 16:54:35;;;;;;;1.20;1.10;;;15.80;92.90;;;;;;10163774;28;20027;-70
2022/09/30 16:59:39;;;;;;;1.40;1.30;;;15.80;92.90;;;;;;10165500;28;20800;-62
2022/09/30 17:04:40;;;;;;;1.70;1.17;;;15.80;92.90;;;;;;10182449;28;20057;-65
2022/09/30 17:09:41;;;;;;;1.15;1.05;;;15.70;92.90;;;;;;10185242;28;20035;-62
2022/09/30 17:14:42;;;;;;;1.67;1.10;;;15.70;93.00;;;;;;10173707;28;20059;-65
2022/09/30 17:19:45;;;;;;;1.20;0.95;;;15.70;93.10;;;;;;10173902;28;20411;-63
2022/09/30 17:24:46;;;;;;;1.10;1.00;;;15.60;93.10;;;;;;10161206;28;20034;-67
2022/09/30 17:29:49;;;;;;;1.13;0.93;;;15.60;93.10;;;;;;10156341;28;20474;-70
2022/09/30 17:34:51;;;;;;;1.20;1.10;;;15.60;93.20;;;;;;10168026;28;20406;-62
2022/09/30 17:39:52;;;;;;;2.13;1.20;;;15.50;93.20;;;;;;10185233;28;20043;-62
2022/09/30 17:44:53;;;;;;;1.33;1.20;;;15.50;93.20;;;;;;10243285;28;20118;-65
2022/09/30 17:49:54;;;;;;;1.40;1.20;;;15.50;93.20;;;;;;10250424;28;20047;-64
2022/09/30 17:54:54;;;;;;;1.63;1.27;;;15.40;93.30;;;;;;10250207;28;20034;-62
2022/09/30 17:59:57;;;;;;;2.05;1.25;;;15.40;93.30;;;;;;10239893;28;20134;-62
2022/09/30 18:04:58;;;;;;;1.23;1.02;;;15.40;93.30;;;;;;10243966;28;20546;-61
2022/09/30 18:09:59;;;;;;;1.48;1.38;;;15.40;93.40;;;;;;10252993;28;20135;-61
2022/09/30 18:14:59;;;;;;;3.75;1.27;;;15.30;93.30;;;;;;10253431;28;20023;-62
2022/09/30 18:20:00;;;;;;;1.63;1.40;;;15.30;93.40;;;;;;10249200;28;20047;-61
2022/09/30 18:25:19;;;;;;;1.75;1.42;;;15.30;93.40;;;;;;10242980;28;20050;-61
2022/09/30 18:30:20;;;;;;;1.83;1.50;;;15.30;93.40;;;;;;10244676;28;20031;-61
2022/09/30 18:35:23;;;;;;;1.52;1.42;;;15.30;93.40;;;;;;10235080;28;20035;-62
2022/09/30 18:40:25;;;;;;;1.30;1.20;;;15.20;93.40;;;;;;10250735;28;20480;-62
2022/09/30 18:45:28;;;;;;;2.90;1.38;;;15.20;93.40;;;;;;10257423;28;20051;-62
2022/09/30 18:50:29;;;;;;;1.80;1.50;;;15.20;93.40;;;;;;10248658;28;20047;-62
2022/09/30 18:55:30;;;;;;;2.00;1.48;;;15.20;93.50;;;;;;10253447;28;20412;-61
2022/09/30 19:00:31;;;;;;;1.58;1.48;;;15.10;93.40;;;;;;10249561;28;20047;-62
2022/09/30 19:05:31;;;;;;;2.38;1.73;;;15.10;93.40;;;;;;10247522;28;20055;-61
2022/09/30 19:10:33;;;;;;;2.70;1.70;;;15.10;93.50;;;;;;10251633;28;20027;-62
2022/09/30 19:15:37;;;;;;;2.65;1.70;;;15.10;93.50;;;;;;10244067;28;20070;-61
2022/09/30 19:20:38;;;;;;;2.33;1.50;;;15.10;93.50;;;;;;10222953;28;20063;-62
2022/09/30 19:25:39;;;;;;;1.75;1.65;;;15.10;93.50;;;;;;10222481;28;21167;-63
2022/09/30 19:30:40;;;;;;;1.90;1.50;;;15.00;93.40;;;;;;10219291;28;20485;-63
2022/09/30 19:35:41;;;;;;;2.05;1.48;;;15.00;93.40;;;;;;10221522;28;20043;-63
2022/09/30 19:40:42;;;;;;;2.88;1.77;;;15.00;93.40;;;;;;10238429;28;20038;-67
2022/09/30 19:45:42;;;;;;;2.67;1.70;;;15.00;93.40;;;;;;10238192;28;20043;-62
2022/09/30 19:50:43;;;;;;;2.67;1.75;;;14.90;93.40;;;;;;10235489;28;20134;-66
2022/09/30 19:55:47;;;;;;;1.83;1.60;;;14.90;93.40;;;;;;10237415;28;20059;-64
2022/09/30 20:00:55;;;;;;;1.92;1.65;;;14.90;93.40;;;;;;10240167;28;20046;-63
2022/09/30 20:06:07;;;;;;;3.03;1.88;;;14.90;93.40;;;;;;10230760;28;20042;-62
2022/09/30 20:11:10;;;;;;;3.65;2.17;;;14.90;93.30;;;;;;10219071;28;20035;-63
2022/09/30 20:16:13;;;;;;;2.22;1.55;;;14.90;93.40;;;;;;10231607;28;20082;-62
2022/09/30 20:21:15;;;;;;;1.77;1.50;;;14.80;93.30;;;;;;10232150;28;20023;-67
2022/09/30 20:26:16;;;;;;;2.55;2.03;;;14.90;93.30;;;;;;10225340;28;20114;-62
2022/09/30 20:31:17;;;;;;;2.72;1.70;;;14.80;93.30;;;;;;10229233;28;20066;-64
2022/09/30 20:36:18;;;;;;;2.17;1.58;;;14.80;93.30;;;;;;10223383;28;20043;-68
2022/09/30 20:41:19;;;;;;;2.60;1.77;;;14.80;93.30;;;;;;10228834;28;20105;-65
2022/09/30 20:46:21;;;;;;;3.17;2.03;;;14.80;93.30;;;;;;10236201;28;20058;-69
2022/09/30 20:51:22;;;;;;;2.33;1.83;;;14.80;93.20;;;;;;10240940;28;20408;-63
2022/09/30 20:56:24;;;;;;;2.90;1.90;;;14.80;93.30;;;;;;10242623;28;20040;-65
2022/09/30 21:01:25;;;;;;;3.22;2.08;;;14.80;93.20;;;;;;10254588;28;20029;-62
2022/09/30 21:06:27;;;;;;;2.95;2.05;;;14.80;93.20;;;;;;10247673;28;20019;-63
2022/09/30 21:11:28;;;;;;;3.53;2.17;;;14.80;93.20;;;;;;10237695;28;20035;-62
2022/09/30 21:16:29;;;;;;;2.30;2.00;;;14.70;93.10;;;;;;10244990;28;20039;-67
2022/09/30 21:21:30;;;;;;;3.50;2.55;;;14.70;93.10;;;;;;10237616;28;20070;-64
2022/09/30 21:26:31;;;;;;;3.78;2.00;;;14.70;93.10;;;;;;10235011;28;20491;-66
2022/09/30 21:31:33;;;;;;;2.70;2.00;;;14.70;93.10;;;;;;10225097;28;20035;-63
2022/09/30 21:36:34;;;;;;;2.85;2.10;;;14.70;93.00;;;;;;10226461;28;20043;-67
2022/09/30 21:41:35;;;;;;;3.72;2.30;;;14.70;93.00;;;;;;10235369;28;20485;-63
2022/09/30 21:46:36;;;;;;;3.33;2.33;;;14.70;93.00;;;;;;10233897;28;20050;-62
2022/09/30 21:51:37;;;;;;;3.67;2.47;;;14.70;93.00;;;;;;10244345;28;20053;-63
2022/09/30 21:56:38;;;;;;;3.28;2.47;;;14.70;92.90;;;;;;10237624;28;20046;-66
2022/09/30 22:01:39;;;;;;;2.85;1.90;;;14.70;92.90;;;;;;10236898;28;20032;-64
2022/09/30 22:06:39;;;;;;;2.22;1.85;;;14.70;92.90;;;;;;10242305;28;20085;-65
2022/09/30 22:11:43;;;;;;;2.65;2.25;;;14.70;92.90;;;;;;10235341;28;20080;-67
2022/09/30 22:16:44;;;;;;;2.50;2.25;;;14.70;92.90;;;;;;10231470;28;20467;-62
2022/09/30 22:21:45;;;;;;;3.17;2.03;;;14.70;92.90;;;;;;10250917;28;20031;-62
2022/09/30 22:26:46;;;;;;;3.70;2.00;;;14.70;92.90;;;;;;10248837;28;20034;-62
2022/09/30 22:31:47;;;;;;;2.85;1.98;;;14.70;92.90;;;;;;10235946;28;20045;-62
2022/09/30 22:42:07;;;;;;;3.00;1.65;;;14.60;92.80;;;;;;10246948;28;20555;-62
2022/09/30 22:47:08;;;;;;;3.58;2.00;;;14.60;92.90;;;;;;10242068;28;20054;-62
2022/09/30 22:52:09;;;;;;;2.05;1.85;;;14.60;92.90;;;;;;10241232;28;20419;-62
2022/09/30 22:57:11;;;;;;;2.28;1.60;;;14.60;92.90;;;;;;10234593;28;20051;-67
2022/09/30 23:02:13;;;;;;;2.40;1.90;;;14.60;93.00;;;;;;10247718;28;20083;-65
2022/09/30 23:07:14;;;;;;;2.03;1.83;;;14.50;93.00;;;;;;10247014;28;20025;-63
2022/09/30 23:12:14;;;;;;;3.85;2.13;;;14.60;93.10;;;;;;10236845;28;20499;-67
2022/09/30 23:17:15;;;;;;;2.55;1.90;;;14.50;93.10;;;;;;10232934;28;20047;-65
2022/09/30 23:22:16;;;;;;;2.47;1.80;;;14.50;93.10;;;;;;10235368;28;20039;-62
2022/09/30 23:27:17;;;;;;;2.75;1.77;;;14.50;93.20;;;;;;10236074;28;20066;-63
2022/09/30 23:32:18;;;;;;;3.40;1.77;;;14.50;93.20;;;;;;10237387;28;20451;-63
2022/09/30 23:37:18;;;;;;;3.90;1.80;;;14.50;93.30;;;;;;10230332;28;20134;-63
2022/09/30 23:42:19;;;;;;;3.45;2.03;;;14.50;93.30;;;;;;10242496;28;20038;-63
2022/09/30 23:47:20;;;;;;;4.93;1.90;;;14.40;93.30;;;;;;10242798;28;20039;-63
2022/09/30 23:52:21;;;;;;;9.18;2.03;;;14.40;93.40;;;;;;10238201;28;20094;-64
2022/09/30 23:57:21;;;;;;;3.08;2.00;;;14.40;93.40;;;;;;10234690;28;20047;-63
